sensor_id;sensor_type;location;lat;lon;timestamp;temperature;humidity
76567;DHT22;65428;53.194;6.132;2023-12-20T00:01:01;5.80;99.90
76567;DHT22;65428;53.194;6.132;2023-12-20T00:03:26;5.80;99.90
76567;DHT22;65428;53.194;6.132;2023-12-20T00:05:52;5.90;99.90
76567;DHT22;65428;53.194;6.132;2023-12-20T00:08:18;5.90;99.90
76567;DHT22;65428;53.194;6.132;2023-12-20T00:10:44;6.00;99.90
76567;DHT22;65428;53.194;6.132;2023-12-20T00:13:10;5.80;99.90
76567;DHT22;65428;53.194;6.132;2023-12-20T00:15:36;6.20;99.90
76567;DHT22;65428;53.194;6.132;2023-12-20T00:18:01;5.80;99.90
76567;DHT22;65428;53.194;6.132;2023-12-20T00:20:27;5.70;99.90
76567;DHT22;65428;53.194;6.132;2023-12-20T00:22:58;5.70;99.90
76567;DHT22;65428;53.194;6.132;2023-12-20T00:25:24;5.70;99.90
76567;DHT22;65428;53.194;6.132;2023-12-20T00:27:50;5.60;99.90
76567;DHT22;65428;53.194;6.132;2023-12-20T00:30:15;5.50;99.90
76567;DHT22;65428;53.194;6.132;2023-12-20T00:32:41;5.50;99.90
76567;DHT22;65428;53.194;6.132;2023-12-20T00:35:13;5.50;99.90
76567;DHT22;65428;53.194;6.132;2023-12-20T00:37:38;5.50;99.90
76567;DHT22;65428;53.194;6.132;2023-12-20T00:40:05;5.50;99.90
76567;DHT22;65428;53.194;6.132;2023-12-20T00:42:31;5.50;99.90
76567;DHT22;65428;53.194;6.132;2023-12-20T00:44:56;5.50;99.90
76567;DHT22;65428;53.194;6.132;2023-12-20T00:47:22;5.50;99.90
76567;DHT22;65428;53.194;6.132;2023-12-20T00:49:47;5.50;99.90
76567;DHT22;65428;53.194;6.132;2023-12-20T00:52:13;5.50;99.90
76567;DHT22;65428;53.194;6.132;2023-12-20T00:54:39;5.60;99.90
76567;DHT22;65428;53.194;6.132;2023-12-20T00:57:05;5.60;99.90
76567;DHT22;65428;53.194;6.132;2023-12-20T00:59:30;5.60;99.90
76567;DHT22;65428;53.194;6.132;2023-12-20T01:01:56;5.70;99.90
76567;DHT22;65428;53.194;6.132;2023-12-20T01:04:21;5.70;99.90
76567;DHT22;65428;53.194;6.132;2023-12-20T01:06:47;5.70;99.90
76567;DHT22;65428;53.194;6.132;2023-12-20T01:09:12;5.80;99.90
76567;DHT22;65428;53.194;6.132;2023-12-20T01:11:38;5.80;99.90
76567;DHT22;65428;53.194;6.132;2023-12-20T01:14:04;5.80;99.90
76567;DHT22;65428;53.194;6.132;2023-12-20T01:16:29;5.90;99.90
76567;DHT22;65428;53.194;6.132;2023-12-20T01:18:55;6.00;99.90
76567;DHT22;65428;53.194;6.132;2023-12-20T01:21:20;6.10;99.90
76567;DHT22;65428;53.194;6.132;2023-12-20T01:23:46;5.90;99.90
76567;DHT22;65428;53.194;6.132;2023-12-20T01:26:12;5.90;99.90
76567;DHT22;65428;53.194;6.132;2023-12-20T01:28:37;5.90;99.90
76567;DHT22;65428;53.194;6.132;2023-12-20T01:31:03;5.90;99.90
76567;DHT22;65428;53.194;6.132;2023-12-20T01:33:29;5.80;99.90
76567;DHT22;65428;53.194;6.132;2023-12-20T01:35:55;5.70;99.90
76567;DHT22;65428;53.194;6.132;2023-12-20T01:38:20;5.70;99.90
76567;DHT22;65428;53.194;6.132;2023-12-20T01:40:46;5.70;99.90
76567;DHT22;65428;53.194;6.132;2023-12-20T01:43:11;5.70;99.90
76567;DHT22;65428;53.194;6.132;2023-12-20T01:45:38;5.70;99.90
76567;DHT22;65428;53.194;6.132;2023-12-20T01:48:05;5.70;99.90
76567;DHT22;65428;53.194;6.132;2023-12-20T01:50:31;5.80;99.90
76567;DHT22;65428;53.194;6.132;2023-12-20T01:52:59;5.60;99.90
76567;DHT22;65428;53.194;6.132;2023-12-20T01:55:27;5.80;99.90
76567;DHT22;65428;53.194;6.132;2023-12-20T01:57:55;5.80;99.90
76567;DHT22;65428;53.194;6.132;2023-12-20T02:00:21;5.90;99.90
76567;DHT22;65428;53.194;6.132;2023-12-20T02:02:50;6.00;99.90
76567;DHT22;65428;53.194;6.132;2023-12-20T02:05:18;6.00;99.90
76567;DHT22;65428;53.194;6.132;2023-12-20T02:07:43;6.10;99.90
76567;DHT22;65428;53.194;6.132;2023-12-20T02:10:09;6.10;99.90
76567;DHT22;65428;53.194;6.132;2023-12-20T02:12:35;6.20;99.90
76567;DHT22;65428;53.194;6.132;2023-12-20T02:15:01;6.20;99.90
76567;DHT22;65428;53.194;6.132;2023-12-20T02:17:27;6.20;99.90
76567;DHT22;65428;53.194;6.132;2023-12-20T02:19:53;6.20;99.90
76567;DHT22;65428;53.194;6.132;2023-12-20T02:22:18;6.20;99.90
76567;DHT22;65428;53.194;6.132;2023-12-20T02:24:44;6.20;99.90
76567;DHT22;65428;53.194;6.132;2023-12-20T02:27:09;6.30;99.90
76567;DHT22;65428;53.194;6.132;2023-12-20T02:29:35;6.30;99.90
76567;DHT22;65428;53.194;6.132;2023-12-20T02:32:01;6.30;99.90
76567;DHT22;65428;53.194;6.132;2023-12-20T02:34:28;6.30;99.90
76567;DHT22;65428;53.194;6.132;2023-12-20T02:36:54;6.30;99.90
76567;DHT22;65428;53.194;6.132;2023-12-20T02:39:20;6.30;99.90
76567;DHT22;65428;53.194;6.132;2023-12-20T02:41:46;6.40;99.90
76567;DHT22;65428;53.194;6.132;2023-12-20T02:44:12;6.40;99.90
76567;DHT22;65428;53.194;6.132;2023-12-20T02:46:38;6.40;99.90
76567;DHT22;65428;53.194;6.132;2023-12-20T02:49:03;6.40;99.90
76567;DHT22;65428;53.194;6.132;2023-12-20T02:51:29;6.50;99.90
76567;DHT22;65428;53.194;6.132;2023-12-20T02:53:54;6.40;99.90
76567;DHT22;65428;53.194;6.132;2023-12-20T02:56:20;6.40;99.90
76567;DHT22;65428;53.194;6.132;2023-12-20T02:58:45;6.40;99.90
76567;DHT22;65428;53.194;6.132;2023-12-20T03:01:11;6.40;99.90
76567;DHT22;65428;53.194;6.132;2023-12-20T03:03:37;6.50;99.90
76567;DHT22;65428;53.194;6.132;2023-12-20T03:06:02;6.50;99.90
76567;DHT22;65428;53.194;6.132;2023-12-20T03:08:28;6.50;99.90
76567;DHT22;65428;53.194;6.132;2023-12-20T03:10:53;6.60;99.90
76567;DHT22;65428;53.194;6.132;2023-12-20T03:13:19;6.60;99.90
76567;DHT22;65428;53.194;6.132;2023-12-20T03:15:45;6.80;99.90
76567;DHT22;65428;53.194;6.132;2023-12-20T03:18:11;6.60;99.90
76567;DHT22;65428;53.194;6.132;2023-12-20T03:20:37;6.60;99.90
76567;DHT22;65428;53.194;6.132;2023-12-20T03:23:03;6.50;99.90
76567;DHT22;65428;53.194;6.132;2023-12-20T03:25:29;6.50;99.90
76567;DHT22;65428;53.194;6.132;2023-12-20T03:27:55;6.50;99.90
76567;DHT22;65428;53.194;6.132;2023-12-20T03:30:20;6.60;99.90
76567;DHT22;65428;53.194;6.132;2023-12-20T03:32:46;6.50;99.90
76567;DHT22;65428;53.194;6.132;2023-12-20T03:35:12;7.10;99.90
76567;DHT22;65428;53.194;6.132;2023-12-20T03:37:38;6.50;99.90
76567;DHT22;65428;53.194;6.132;2023-12-20T03:40:04;6.60;99.90
76567;DHT22;65428;53.194;6.132;2023-12-20T03:42:30;6.60;99.90
76567;DHT22;65428;53.194;6.132;2023-12-20T03:44:55;6.70;99.90
76567;DHT22;65428;53.194;6.132;2023-12-20T03:47:21;6.60;99.90
76567;DHT22;65428;53.194;6.132;2023-12-20T03:49:46;6.60;99.90
76567;DHT22;65428;53.194;6.132;2023-12-20T03:52:12;6.70;99.90
76567;DHT22;65428;53.194;6.132;2023-12-20T03:54:37;6.80;99.90
76567;DHT22;65428;53.194;6.132;2023-12-20T03:57:03;6.70;99.90
76567;DHT22;65428;53.194;6.132;2023-12-20T03:59:30;6.70;99.90
76567;DHT22;65428;53.194;6.132;2023-12-20T04:01:59;6.80;99.90
76567;DHT22;65428;53.194;6.132;2023-12-20T04:04:25;6.80;99.90
76567;DHT22;65428;53.194;6.132;2023-12-20T04:06:50;6.90;99.90
76567;DHT22;65428;53.194;6.132;2023-12-20T04:09:16;6.90;99.90
76567;DHT22;65428;53.194;6.132;2023-12-20T04:11:42;7.20;99.90
76567;DHT22;65428;53.194;6.132;2023-12-20T04:14:07;7.00;99.90
76567;DHT22;65428;53.194;6.132;2023-12-20T04:16:33;7.00;99.90
76567;DHT22;65428;53.194;6.132;2023-12-20T04:18:58;7.00;99.90
76567;DHT22;65428;53.194;6.132;2023-12-20T04:21:24;7.00;99.90
76567;DHT22;65428;53.194;6.132;2023-12-20T04:23:50;7.00;99.90
76567;DHT22;65428;53.194;6.132;2023-12-20T04:26:15;7.00;99.90
76567;DHT22;65428;53.194;6.132;2023-12-20T04:28:41;7.00;99.90
76567;DHT22;65428;53.194;6.132;2023-12-20T04:31:06;7.00;99.90
76567;DHT22;65428;53.194;6.132;2023-12-20T04:33:32;7.00;99.90
76567;DHT22;65428;53.194;6.132;2023-12-20T04:35:58;7.00;99.90
76567;DHT22;65428;53.194;6.132;2023-12-20T04:38:23;7.10;99.90
76567;DHT22;65428;53.194;6.132;2023-12-20T04:40:49;7.10;99.90
76567;DHT22;65428;53.194;6.132;2023-12-20T04:43:14;7.20;99.90
76567;DHT22;65428;53.194;6.132;2023-12-20T04:45:40;7.30;99.90
76567;DHT22;65428;53.194;6.132;2023-12-20T04:48:06;7.20;99.90
76567;DHT22;65428;53.194;6.132;2023-12-20T04:50:32;7.30;99.90
76567;DHT22;65428;53.194;6.132;2023-12-20T04:52:58;7.30;99.90
76567;DHT22;65428;53.194;6.132;2023-12-20T04:55:24;7.30;99.90
76567;DHT22;65428;53.194;6.132;2023-12-20T04:57:49;7.30;99.90
76567;DHT22;65428;53.194;6.132;2023-12-20T05:00:15;7.30;99.90
76567;DHT22;65428;53.194;6.132;2023-12-20T05:02:41;7.30;99.90
76567;DHT22;65428;53.194;6.132;2023-12-20T05:05:07;7.30;99.90
76567;DHT22;65428;53.194;6.132;2023-12-20T05:07:33;7.40;99.90
76567;DHT22;65428;53.194;6.132;2023-12-20T05:09:59;7.40;99.90
76567;DHT22;65428;53.194;6.132;2023-12-20T05:12:25;7.40;99.90
76567;DHT22;65428;53.194;6.132;2023-12-20T05:14:51;7.40;99.90
76567;DHT22;65428;53.194;6.132;2023-12-20T05:17:17;7.50;99.90
76567;DHT22;65428;53.194;6.132;2023-12-20T05:19:43;7.50;99.90
76567;DHT22;65428;53.194;6.132;2023-12-20T05:22:08;7.50;99.90
76567;DHT22;65428;53.194;6.132;2023-12-20T05:24:34;7.50;99.90
76567;DHT22;65428;53.194;6.132;2023-12-20T05:27:00;7.50;99.90
76567;DHT22;65428;53.194;6.132;2023-12-20T05:29:26;7.50;99.90
76567;DHT22;65428;53.194;6.132;2023-12-20T05:31:51;7.50;99.90
76567;DHT22;65428;53.194;6.132;2023-12-20T05:34:17;7.60;99.90
76567;DHT22;65428;53.194;6.132;2023-12-20T05:36:43;7.80;99.90
76567;DHT22;65428;53.194;6.132;2023-12-20T05:39:08;7.70;99.90
76567;DHT22;65428;53.194;6.132;2023-12-20T05:41:34;8.40;99.90
76567;DHT22;65428;53.194;6.132;2023-12-20T05:44:00;7.80;99.90
76567;DHT22;65428;53.194;6.132;2023-12-20T05:46:26;8.00;99.90
76567;DHT22;65428;53.194;6.132;2023-12-20T05:48:51;7.50;99.90
76567;DHT22;65428;53.194;6.132;2023-12-20T05:51:17;7.80;99.90
76567;DHT22;65428;53.194;6.132;2023-12-20T05:53:44;7.80;99.90
76567;DHT22;65428;53.194;6.132;2023-12-20T05:56:10;7.80;99.90
76567;DHT22;65428;53.194;6.132;2023-12-20T05:58:36;7.50;99.90
76567;DHT22;65428;53.194;6.132;2023-12-20T06:01:05;8.10;99.90
76567;DHT22;65428;53.194;6.132;2023-12-20T06:03:31;7.80;99.90
76567;DHT22;65428;53.194;6.132;2023-12-20T06:05:56;7.80;99.90
76567;DHT22;65428;53.194;6.132;2023-12-20T06:08:22;7.90;99.90
76567;DHT22;65428;53.194;6.132;2023-12-20T06:10:48;7.80;99.90
76567;DHT22;65428;53.194;6.132;2023-12-20T06:13:14;7.90;99.90
76567;DHT22;65428;53.194;6.132;2023-12-20T06:15:43;7.80;99.90
76567;DHT22;65428;53.194;6.132;2023-12-20T06:18:09;8.00;99.90
76567;DHT22;65428;53.194;6.132;2023-12-20T06:20:35;7.90;99.90
76567;DHT22;65428;53.194;6.132;2023-12-20T06:23:01;7.90;99.90
76567;DHT22;65428;53.194;6.132;2023-12-20T06:25:26;8.20;99.90
76567;DHT22;65428;53.194;6.132;2023-12-20T06:27:52;8.00;99.90
76567;DHT22;65428;53.194;6.132;2023-12-20T06:30:18;8.00;99.90
76567;DHT22;65428;53.194;6.132;2023-12-20T06:32:44;8.10;99.90
76567;DHT22;65428;53.194;6.132;2023-12-20T06:35:09;7.90;99.90
76567;DHT22;65428;53.194;6.132;2023-12-20T06:37:35;8.10;99.90
76567;DHT22;65428;53.194;6.132;2023-12-20T06:40:04;8.00;99.90
76567;DHT22;65428;53.194;6.132;2023-12-20T06:42:30;8.00;99.90
76567;DHT22;65428;53.194;6.132;2023-12-20T06:44:56;8.00;99.90
76567;DHT22;65428;53.194;6.132;2023-12-20T06:47:21;8.00;99.90
76567;DHT22;65428;53.194;6.132;2023-12-20T06:49:47;8.40;99.90
76567;DHT22;65428;53.194;6.132;2023-12-20T06:52:13;8.10;99.90
76567;DHT22;65428;53.194;6.132;2023-12-20T06:54:39;8.10;99.90
76567;DHT22;65428;53.194;6.132;2023-12-20T06:57:07;8.10;99.90
76567;DHT22;65428;53.194;6.132;2023-12-20T06:59:38;8.10;99.90
76567;DHT22;65428;53.194;6.132;2023-12-20T07:02:04;8.20;99.90
76567;DHT22;65428;53.194;6.132;2023-12-20T07:04:31;8.30;99.90
76567;DHT22;65428;53.194;6.132;2023-12-20T07:06:59;8.10;99.90
76567;DHT22;65428;53.194;6.132;2023-12-20T07:09:26;8.10;99.90
76567;DHT22;65428;53.194;6.132;2023-12-20T07:11:52;8.30;99.90
76567;DHT22;65428;53.194;6.132;2023-12-20T07:14:18;8.10;99.90
76567;DHT22;65428;53.194;6.132;2023-12-20T07:16:46;8.10;99.90
76567;DHT22;65428;53.194;6.132;2023-12-20T07:19:12;8.00;99.90
76567;DHT22;65428;53.194;6.132;2023-12-20T07:21:41;8.00;99.90
76567;DHT22;65428;53.194;6.132;2023-12-20T07:24:07;8.00;99.90
76567;DHT22;65428;53.194;6.132;2023-12-20T07:26:32;8.10;99.90
76567;DHT22;65428;53.194;6.132;2023-12-20T07:28:59;8.00;99.90
76567;DHT22;65428;53.194;6.132;2023-12-20T07:31:25;8.10;99.90
76567;DHT22;65428;53.194;6.132;2023-12-20T07:33:53;8.20;99.90
76567;DHT22;65428;53.194;6.132;2023-12-20T07:36:19;8.00;99.90
76567;DHT22;65428;53.194;6.132;2023-12-20T07:38:45;8.10;99.90
76567;DHT22;65428;53.194;6.132;2023-12-20T07:41:11;8.00;99.90
76567;DHT22;65428;53.194;6.132;2023-12-20T07:43:36;8.00;99.90
76567;DHT22;65428;53.194;6.132;2023-12-20T07:46:06;8.00;99.90
76567;DHT22;65428;53.194;6.132;2023-12-20T07:48:33;8.00;99.90
76567;DHT22;65428;53.194;6.132;2023-12-20T07:50:59;8.00;99.90
76567;DHT22;65428;53.194;6.132;2023-12-20T07:53:28;8.10;99.90
76567;DHT22;65428;53.194;6.132;2023-12-20T07:55:55;8.40;99.90
76567;DHT22;65428;53.194;6.132;2023-12-20T07:58:21;8.10;99.90
76567;DHT22;65428;53.194;6.132;2023-12-20T08:00:47;7.90;99.90
76567;DHT22;65428;53.194;6.132;2023-12-20T08:03:13;8.10;99.90
76567;DHT22;65428;53.194;6.132;2023-12-20T08:05:38;8.70;99.90
76567;DHT22;65428;53.194;6.132;2023-12-20T08:08:07;8.10;99.90
76567;DHT22;65428;53.194;6.132;2023-12-20T08:10:32;8.10;99.90
76567;DHT22;65428;53.194;6.132;2023-12-20T08:12:58;8.20;99.90
76567;DHT22;65428;53.194;6.132;2023-12-20T08:15:25;8.10;99.90
76567;DHT22;65428;53.194;6.132;2023-12-20T08:17:53;8.10;99.90
76567;DHT22;65428;53.194;6.132;2023-12-20T08:20:25;8.20;99.90
76567;DHT22;65428;53.194;6.132;2023-12-20T08:22:50;8.10;99.90
76567;DHT22;65428;53.194;6.132;2023-12-20T08:25:16;8.10;99.90
76567;DHT22;65428;53.194;6.132;2023-12-20T08:27:44;8.10;99.90
76567;DHT22;65428;53.194;6.132;2023-12-20T08:30:16;8.30;99.90
76567;DHT22;65428;53.194;6.132;2023-12-20T08:32:48;8.10;99.90
76567;DHT22;65428;53.194;6.132;2023-12-20T08:35:13;8.00;99.90
76567;DHT22;65428;53.194;6.132;2023-12-20T08:37:39;8.30;99.90
76567;DHT22;65428;53.194;6.132;2023-12-20T08:40:05;8.10;99.90
76567;DHT22;65428;53.194;6.132;2023-12-20T08:42:31;8.20;99.90
76567;DHT22;65428;53.194;6.132;2023-12-20T08:44:57;8.20;99.90
76567;DHT22;65428;53.194;6.132;2023-12-20T08:47:29;8.10;99.90
76567;DHT22;65428;53.194;6.132;2023-12-20T08:49:55;8.90;99.90
76567;DHT22;65428;53.194;6.132;2023-12-20T08:52:26;8.80;99.90
76567;DHT22;65428;53.194;6.132;2023-12-20T08:54:55;8.30;99.90
76567;DHT22;65428;53.194;6.132;2023-12-20T08:57:21;8.60;99.90
76567;DHT22;65428;53.194;6.132;2023-12-20T08:59:47;8.30;99.90
76567;DHT22;65428;53.194;6.132;2023-12-20T09:02:14;8.10;99.90
76567;DHT22;65428;53.194;6.132;2023-12-20T09:04:39;7.30;99.90
76567;DHT22;65428;53.194;6.132;2023-12-20T09:07:05;6.90;99.90
76567;DHT22;65428;53.194;6.132;2023-12-20T09:09:31;6.90;99.90
76567;DHT22;65428;53.194;6.132;2023-12-20T09:12:00;6.50;99.90
76567;DHT22;65428;53.194;6.132;2023-12-20T09:14:25;6.30;99.90
76567;DHT22;65428;53.194;6.132;2023-12-20T09:16:51;6.40;99.90
76567;DHT22;65428;53.194;6.132;2023-12-20T09:19:17;6.10;99.90
76567;DHT22;65428;53.194;6.132;2023-12-20T09:21:43;6.00;99.90
76567;DHT22;65428;53.194;6.132;2023-12-20T09:24:09;6.00;99.90
76567;DHT22;65428;53.194;6.132;2023-12-20T09:26:35;5.80;99.90
76567;DHT22;65428;53.194;6.132;2023-12-20T09:29:00;5.90;99.90
76567;DHT22;65428;53.194;6.132;2023-12-20T09:31:26;5.90;99.90
76567;DHT22;65428;53.194;6.132;2023-12-20T09:33:52;5.90;99.90
76567;DHT22;65428;53.194;6.132;2023-12-20T09:36:18;6.00;99.90
76567;DHT22;65428;53.194;6.132;2023-12-20T09:38:43;6.00;99.90
76567;DHT22;65428;53.194;6.132;2023-12-20T09:41:09;6.00;99.90
76567;DHT22;65428;53.194;6.132;2023-12-20T09:43:38;6.10;99.90
76567;DHT22;65428;53.194;6.132;2023-12-20T09:46:06;6.00;99.90
76567;DHT22;65428;53.194;6.132;2023-12-20T09:48:33;6.00;99.90
76567;DHT22;65428;53.194;6.132;2023-12-20T09:51:00;6.00;99.90
76567;DHT22;65428;53.194;6.132;2023-12-20T09:53:26;6.20;99.90
76567;DHT22;65428;53.194;6.132;2023-12-20T09:55:58;6.40;99.90
76567;DHT22;65428;53.194;6.132;2023-12-20T09:58:27;6.50;99.90
76567;DHT22;65428;53.194;6.132;2023-12-20T10:00:54;6.40;99.90
76567;DHT22;65428;53.194;6.132;2023-12-20T10:03:25;6.50;99.90
76567;DHT22;65428;53.194;6.132;2023-12-20T10:05:54;6.90;99.90
76567;DHT22;65428;53.194;6.132;2023-12-20T10:08:21;6.50;99.90
76567;DHT22;65428;53.194;6.132;2023-12-20T10:10:48;6.30;99.90
76567;DHT22;65428;53.194;6.132;2023-12-20T10:13:14;6.40;99.90
76567;DHT22;65428;53.194;6.132;2023-12-20T10:15:40;6.40;99.90
76567;DHT22;65428;53.194;6.132;2023-12-20T10:18:06;6.50;99.90
76567;DHT22;65428;53.194;6.132;2023-12-20T10:20:32;6.60;99.90
76567;DHT22;65428;53.194;6.132;2023-12-20T10:22:59;6.70;99.90
76567;DHT22;65428;53.194;6.132;2023-12-20T10:25:25;6.70;99.90
76567;DHT22;65428;53.194;6.132;2023-12-20T10:28:10;6.80;99.90
76567;DHT22;65428;53.194;6.132;2023-12-20T10:30:36;6.90;99.90
76567;DHT22;65428;53.194;6.132;2023-12-20T10:33:02;6.90;99.90
76567;DHT22;65428;53.194;6.132;2023-12-20T10:35:27;6.90;99.90
76567;DHT22;65428;53.194;6.132;2023-12-20T10:37:56;7.10;99.90
76567;DHT22;65428;53.194;6.132;2023-12-20T10:40:22;6.90;99.90
76567;DHT22;65428;53.194;6.132;2023-12-20T10:42:48;6.90;99.90
76567;DHT22;65428;53.194;6.132;2023-12-20T10:45:16;6.90;99.90
76567;DHT22;65428;53.194;6.132;2023-12-20T10:47:46;6.90;99.90
76567;DHT22;65428;53.194;6.132;2023-12-20T10:50:12;7.00;99.90
76567;DHT22;65428;53.194;6.132;2023-12-20T10:52:38;7.00;99.90
76567;DHT22;65428;53.194;6.132;2023-12-20T10:55:06;7.00;99.90
76567;DHT22;65428;53.194;6.132;2023-12-20T10:57:32;7.00;99.90
76567;DHT22;65428;53.194;6.132;2023-12-20T11:00:01;7.10;99.90
76567;DHT22;65428;53.194;6.132;2023-12-20T11:02:36;6.90;99.90
76567;DHT22;65428;53.194;6.132;2023-12-20T11:10:45;7.20;99.90
76567;DHT22;65428;53.194;6.132;2023-12-20T11:13:53;7.30;99.90
76567;DHT22;65428;53.194;6.132;2023-12-20T11:16:20;7.30;99.90
76567;DHT22;65428;53.194;6.132;2023-12-20T11:18:46;7.30;99.90
76567;DHT22;65428;53.194;6.132;2023-12-20T11:21:11;7.40;99.90
76567;DHT22;65428;53.194;6.132;2023-12-20T11:23:42;7.50;99.90
76567;DHT22;65428;53.194;6.132;2023-12-20T11:26:08;7.50;99.90
76567;DHT22;65428;53.194;6.132;2023-12-20T11:28:33;7.60;99.90
76567;DHT22;65428;53.194;6.132;2023-12-20T11:31:01;7.70;99.90
76567;DHT22;65428;53.194;6.132;2023-12-20T11:33:37;8.00;99.90
76567;DHT22;65428;53.194;6.132;2023-12-20T11:36:07;7.80;99.90
76567;DHT22;65428;53.194;6.132;2023-12-20T11:38:38;7.80;99.90
76567;DHT22;65428;53.194;6.132;2023-12-20T11:41:06;7.80;99.90
76567;DHT22;65428;53.194;6.132;2023-12-20T11:43:36;7.90;99.90
76567;DHT22;65428;53.194;6.132;2023-12-20T11:46:03;7.80;99.90
76567;DHT22;65428;53.194;6.132;2023-12-20T11:48:30;7.80;99.90
76567;DHT22;65428;53.194;6.132;2023-12-20T11:50:57;7.90;99.90
76567;DHT22;65428;53.194;6.132;2023-12-20T11:53:23;7.90;99.90
76567;DHT22;65428;53.194;6.132;2023-12-20T11:55:51;7.90;99.90
76567;DHT22;65428;53.194;6.132;2023-12-20T11:58:17;7.90;99.90
76567;DHT22;65428;53.194;6.132;2023-12-20T12:00:43;7.90;99.90
76567;DHT22;65428;53.194;6.132;2023-12-20T12:03:09;8.00;99.90
76567;DHT22;65428;53.194;6.132;2023-12-20T12:05:35;8.00;99.90
76567;DHT22;65428;53.194;6.132;2023-12-20T12:08:02;8.00;99.90
76567;DHT22;65428;53.194;6.132;2023-12-20T12:10:28;8.40;99.90
76567;DHT22;65428;53.194;6.132;2023-12-20T12:12:54;8.10;99.90
76567;DHT22;65428;53.194;6.132;2023-12-20T12:15:20;8.10;99.90
76567;DHT22;65428;53.194;6.132;2023-12-20T12:17:56;8.10;99.90
76567;DHT22;65428;53.194;6.132;2023-12-20T12:20:23;8.10;99.90
76567;DHT22;65428;53.194;6.132;2023-12-20T12:23:05;8.00;99.90
76567;DHT22;65428;53.194;6.132;2023-12-20T12:25:34;8.00;99.90
76567;DHT22;65428;53.194;6.132;2023-12-20T12:28:00;8.00;99.90
76567;DHT22;65428;53.194;6.132;2023-12-20T12:30:26;8.00;99.90
76567;DHT22;65428;53.194;6.132;2023-12-20T12:32:53;8.00;99.90
76567;DHT22;65428;53.194;6.132;2023-12-20T12:35:20;8.00;99.90
76567;DHT22;65428;53.194;6.132;2023-12-20T12:37:46;8.00;99.90
76567;DHT22;65428;53.194;6.132;2023-12-20T12:40:13;8.00;99.90
76567;DHT22;65428;53.194;6.132;2023-12-20T12:42:39;8.00;99.90
76567;DHT22;65428;53.194;6.132;2023-12-20T12:45:06;8.10;99.90
76567;DHT22;65428;53.194;6.132;2023-12-20T12:47:33;8.10;99.90
76567;DHT22;65428;53.194;6.132;2023-12-20T12:49:59;8.10;99.90
76567;DHT22;65428;53.194;6.132;2023-12-20T12:52:24;8.10;99.90
76567;DHT22;65428;53.194;6.132;2023-12-20T12:54:52;8.10;99.90
76567;DHT22;65428;53.194;6.132;2023-12-20T12:57:18;8.00;99.90
76567;DHT22;65428;53.194;6.132;2023-12-20T12:59:45;8.00;99.90
76567;DHT22;65428;53.194;6.132;2023-12-20T13:02:14;8.00;99.90
76567;DHT22;65428;53.194;6.132;2023-12-20T13:04:40;8.10;99.90
76567;DHT22;65428;53.194;6.132;2023-12-20T13:07:10;7.80;99.90
76567;DHT22;65428;53.194;6.132;2023-12-20T13:09:37;8.10;99.90
76567;DHT22;65428;53.194;6.132;2023-12-20T13:12:03;7.70;99.90
76567;DHT22;65428;53.194;6.132;2023-12-20T13:14:31;7.70;99.90
76567;DHT22;65428;53.194;6.132;2023-12-20T13:16:57;7.60;99.90
76567;DHT22;65428;53.194;6.132;2023-12-20T13:19:23;7.60;99.90
76567;DHT22;65428;53.194;6.132;2023-12-20T13:21:49;7.60;99.90
76567;DHT22;65428;53.194;6.132;2023-12-20T13:24:14;7.40;99.90
76567;DHT22;65428;53.194;6.132;2023-12-20T13:26:40;7.50;99.90
76567;DHT22;65428;53.194;6.132;2023-12-20T13:29:06;7.40;99.90
76567;DHT22;65428;53.194;6.132;2023-12-20T13:31:31;7.50;99.90
76567;DHT22;65428;53.194;6.132;2023-12-20T13:33:57;7.40;99.90
76567;DHT22;65428;53.194;6.132;2023-12-20T13:36:22;7.40;99.90
76567;DHT22;65428;53.194;6.132;2023-12-20T13:38:48;7.40;99.90
76567;DHT22;65428;53.194;6.132;2023-12-20T13:41:14;7.30;99.90
76567;DHT22;65428;53.194;6.132;2023-12-20T13:43:39;7.30;99.90
76567;DHT22;65428;53.194;6.132;2023-12-20T13:46:05;7.50;99.90
76567;DHT22;65428;53.194;6.132;2023-12-20T13:48:31;7.30;99.90
76567;DHT22;65428;53.194;6.132;2023-12-20T13:50:56;7.60;99.90
76567;DHT22;65428;53.194;6.132;2023-12-20T13:53:22;7.20;99.90
76567;DHT22;65428;53.194;6.132;2023-12-20T13:55:47;7.20;99.90
76567;DHT22;65428;53.194;6.132;2023-12-20T13:58:13;7.20;99.90
76567;DHT22;65428;53.194;6.132;2023-12-20T14:00:40;7.20;99.90
76567;DHT22;65428;53.194;6.132;2023-12-20T14:03:05;7.20;99.90
76567;DHT22;65428;53.194;6.132;2023-12-20T14:05:31;7.20;99.90
76567;DHT22;65428;53.194;6.132;2023-12-20T14:07:57;7.20;99.90
76567;DHT22;65428;53.194;6.132;2023-12-20T14:10:23;7.50;99.90
76567;DHT22;65428;53.194;6.132;2023-12-20T14:12:49;7.20;99.90
76567;DHT22;65428;53.194;6.132;2023-12-20T14:15:14;7.20;99.90
76567;DHT22;65428;53.194;6.132;2023-12-20T14:17:41;7.20;99.90
76567;DHT22;65428;53.194;6.132;2023-12-20T14:20:09;7.10;99.90
76567;DHT22;65428;53.194;6.132;2023-12-20T14:22:37;7.10;99.90
76567;DHT22;65428;53.194;6.132;2023-12-20T14:25:04;7.10;99.90
76567;DHT22;65428;53.194;6.132;2023-12-20T14:27:31;7.10;99.90
76567;DHT22;65428;53.194;6.132;2023-12-20T14:29:57;7.10;99.90
76567;DHT22;65428;53.194;6.132;2023-12-20T14:32:23;7.10;99.90
76567;DHT22;65428;53.194;6.132;2023-12-20T14:34:49;7.10;99.90
76567;DHT22;65428;53.194;6.132;2023-12-20T14:37:14;7.10;99.90
76567;DHT22;65428;53.194;6.132;2023-12-20T14:39:41;7.10;99.90
76567;DHT22;65428;53.194;6.132;2023-12-20T14:42:08;7.10;99.90
76567;DHT22;65428;53.194;6.132;2023-12-20T14:44:39;7.10;99.90
76567;DHT22;65428;53.194;6.132;2023-12-20T14:47:06;7.10;99.90
76567;DHT22;65428;53.194;6.132;2023-12-20T14:49:32;7.10;99.90
76567;DHT22;65428;53.194;6.132;2023-12-20T14:51:58;7.10;99.90
76567;DHT22;65428;53.194;6.132;2023-12-20T14:54:24;7.10;99.90
76567;DHT22;65428;53.194;6.132;2023-12-20T14:56:49;7.10;99.90
76567;DHT22;65428;53.194;6.132;2023-12-20T14:59:15;7.10;99.90
76567;DHT22;65428;53.194;6.132;2023-12-20T15:01:40;7.10;99.90
76567;DHT22;65428;53.194;6.132;2023-12-20T15:04:07;7.40;99.90
76567;DHT22;65428;53.194;6.132;2023-12-20T15:06:33;7.10;99.90
76567;DHT22;65428;53.194;6.132;2023-12-20T15:08:59;7.10;99.90
76567;DHT22;65428;53.194;6.132;2023-12-20T15:11:25;7.10;99.90
76567;DHT22;65428;53.194;6.132;2023-12-20T15:13:51;7.10;99.90
76567;DHT22;65428;53.194;6.132;2023-12-20T15:16:22;7.10;99.90
76567;DHT22;65428;53.194;6.132;2023-12-20T15:18:48;7.10;99.90
76567;DHT22;65428;53.194;6.132;2023-12-20T15:21:15;7.10;99.90
76567;DHT22;65428;53.194;6.132;2023-12-20T15:23:40;7.20;99.90
76567;DHT22;65428;53.194;6.132;2023-12-20T15:26:20;7.30;99.90
76567;DHT22;65428;53.194;6.132;2023-12-20T15:28:45;7.10;99.90
76567;DHT22;65428;53.194;6.132;2023-12-20T15:31:11;7.10;99.90
76567;DHT22;65428;53.194;6.132;2023-12-20T15:33:37;7.10;99.90
76567;DHT22;65428;53.194;6.132;2023-12-20T15:36:04;7.00;99.90
76567;DHT22;65428;53.194;6.132;2023-12-20T15:38:29;7.00;99.90
76567;DHT22;65428;53.194;6.132;2023-12-20T15:40:55;7.10;99.90
76567;DHT22;65428;53.194;6.132;2023-12-20T15:43:21;7.10;99.90
76567;DHT22;65428;53.194;6.132;2023-12-20T15:45:46;7.10;99.90